createdAt,value
2022-09-17T00:01:29.658Z,97728.75
2022-09-17T00:04:02.190Z,97739.41
2022-09-17T00:06:30.839Z,97716.03
2022-09-17T00:08:58.408Z,97663.69
2022-09-17T00:11:29.526Z,97725.88
2022-09-17T00:14:01.036Z,97722.44
2022-09-17T00:16:32.447Z,97737.31
2022-09-17T00:19:01.093Z,97739.09
2022-09-17T00:21:29.714Z,97741.03
2022-09-17T00:23:59.273Z,97741.03
2022-09-17T00:26:27.639Z,97707.59
2022-09-17T00:28:56.483Z,97743.00
2022-09-17T00:31:24.259Z,97750.16
2022-09-17T00:33:52.809Z,97751.13
2022-09-17T00:36:22.185Z,97756.50
2022-09-17T00:38:51.635Z,97737.47
2022-09-17T00:41:19.906Z,97737.63
2022-09-17T00:43:57.507Z,97748.06
2022-09-17T00:46:34.590Z,97759.44
2022-09-17T00:49:15.304Z,97744.13
2022-09-17T00:51:50.091Z,97768.44
2022-09-17T00:54:17.469Z,97760.66
2022-09-17T00:56:44.863Z,97760.75
2022-09-17T00:59:11.899Z,97725.56
2022-09-17T01:01:39.263Z,97760.88
2022-09-17T01:04:06.698Z,97766.06
2022-09-17T01:06:46.567Z,97767.78
2022-09-17T01:09:32.881Z,97775.69
2022-09-17T01:12:26.142Z,97765.31
2022-09-17T01:14:56.305Z,97760.16
2022-09-17T01:17:50.995Z,97762.94
2022-09-17T01:20:45.918Z,97763.88
2022-09-17T01:23:49.764Z,97763.97
2022-09-17T01:26:38.515Z,97771.03
2022-09-17T01:29:23.963Z,97772.00
2022-09-17T01:31:56.827Z,97765.22
2022-09-17T01:34:40.075Z,97762.00
2022-09-17T01:37:07.035Z,97780.16
2022-09-17T01:39:50.623Z,97783.78
2022-09-17T01:42:26.265Z,97790.03
2022-09-17T01:45:05.308Z,97786.50
2022-09-17T01:47:58.490Z,97780.59
2022-09-17T01:50:31.363Z,97784.94
2022-09-17T01:53:00.427Z,97780.59
2022-09-17T01:55:33.788Z,97775.63
2022-09-17T01:58:24.234Z,97797.28
2022-09-17T02:00:53.591Z,97792.97
2022-09-17T02:03:28.352Z,97777.50
2022-09-17T02:06:13.175Z,97806.16
2022-09-17T02:08:44.981Z,97802.78
2022-09-17T02:11:17.652Z,97808.03
2022-09-17T02:13:56.400Z,97811.66
2022-09-17T02:16:27.399Z,97816.06
2022-09-17T02:19:35.005Z,97817.81
2022-09-17T02:22:19.977Z,97823.09
2022-09-17T02:25:14.686Z,97812.84
2022-09-17T02:28:06.166Z,97826.69
2022-09-17T02:30:33.280Z,97819.72
2022-09-17T02:33:03.081Z,97818.91
2022-09-17T02:35:32.076Z,97785.97
2022-09-17T02:38:00.578Z,97806.75
2022-09-17T02:40:31.581Z,97784.47
2022-09-17T02:43:25.266Z,97815.56
2022-09-17T02:46:34.358Z,97814.72
2022-09-17T02:49:11.132Z,97819.16
2022-09-17T02:52:02.516Z,97811.50
2022-09-17T02:54:30.929Z,97799.44
2022-09-17T02:57:04.902Z,97824.50
2022-09-17T02:59:47.726Z,97831.47
2022-09-17T03:02:23.727Z,97826.25
2022-09-17T03:04:52.969Z,97815.81
2022-09-17T03:07:20.551Z,97806.41
2022-09-17T03:09:47.625Z,97820.16
2022-09-17T03:12:15.391Z,97831.41
2022-09-17T03:14:42.835Z,97838.31
2022-09-17T03:17:10.830Z,97823.63
2022-09-17T03:19:38.156Z,97841.84
2022-09-17T03:22:06.227Z,97835.84
2022-09-17T03:24:33.310Z,97850.66
2022-09-17T03:27:00.248Z,97862.03
2022-09-17T03:29:27.594Z,97855.00
2022-09-17T03:31:54.539Z,97831.72
2022-09-17T03:34:22.087Z,97829.94
2022-09-17T03:36:49.391Z,97840.34
2022-09-17T03:39:17.185Z,97855.94
2022-09-17T03:41:44.231Z,97848.94
2022-09-17T03:44:11.353Z,97866.41
2022-09-17T03:46:38.575Z,97862.84
2022-09-17T03:49:05.828Z,97858.50
2022-09-17T03:51:33.010Z,97859.22
2022-09-17T03:54:00.466Z,97854.03
2022-09-17T03:56:28.127Z,97861.69
2022-09-17T03:59:01.921Z,97864.16
2022-09-17T04:01:29.931Z,97869.31
2022-09-17T04:03:57.200Z,97855.34
2022-09-17T04:06:24.329Z,97824.06
2022-09-17T04:08:51.543Z,97879.56
2022-09-17T04:11:18.471Z,97888.25
2022-09-17T04:13:45.978Z,97876.09
2022-09-17T04:16:13.187Z,97858.81
2022-09-17T04:18:40.221Z,97889.03
2022-09-17T04:21:07.325Z,97891.63
2022-09-17T04:23:34.503Z,97883.88
2022-09-17T04:26:01.887Z,97896.13
2022-09-17T04:28:28.925Z,97890.16
2022-09-17T04:30:56.300Z,97889.34
2022-09-17T04:33:24.221Z,97895.53
2022-09-17T04:35:51.491Z,97897.28
2022-09-17T04:38:20.683Z,97903.41
2022-09-17T04:40:48.390Z,97909.34
2022-09-17T04:43:15.960Z,97897.25
2022-09-17T04:45:47.439Z,97905.03
2022-09-17T04:48:14.896Z,97858.03
2022-09-17T04:50:42.510Z,97893.19
2022-09-17T04:53:10.020Z,97910.94
2022-09-17T04:55:37.020Z,97915.84
2022-09-17T04:58:04.653Z,97911.19
2022-09-17T05:00:31.607Z,97892.66
2022-09-17T05:02:58.639Z,97911.69
2022-09-17T05:05:25.726Z,97894.97
2022-09-17T05:07:53.631Z,97913.91
2022-09-17T05:10:23.008Z,97909.09
2022-09-17T05:12:55.714Z,97908.03
2022-09-17T05:15:24.898Z,97922.88
2022-09-17T05:17:52.653Z,97923.69
2022-09-17T05:20:20.677Z,97898.88
2022-09-17T05:22:53.974Z,97930.91
2022-09-17T05:25:25.847Z,97939.69
2022-09-17T05:27:54.079Z,97943.91
2022-09-17T05:30:21.669Z,97929.13
2022-09-17T05:32:49.437Z,97935.00
2022-09-17T05:35:17.035Z,97927.16
2022-09-17T05:37:44.222Z,97925.50
2022-09-17T05:40:13.131Z,97958.41
2022-09-17T05:42:40.600Z,97931.94
2022-09-17T05:45:08.472Z,97937.69
2022-09-17T05:47:35.948Z,97945.19
2022-09-17T05:50:03.048Z,97955.03
2022-09-17T05:52:30.784Z,97949.69
2022-09-17T05:54:58.184Z,97972.81
2022-09-17T05:57:25.559Z,97968.41
2022-09-17T05:59:53.103Z,97974.66
2022-09-17T06:02:20.225Z,97970.09
2022-09-17T06:04:47.316Z,97960.72
2022-09-17T06:07:14.477Z,97959.50
2022-09-17T06:09:41.513Z,97966.22
2022-09-17T06:12:09.252Z,97947.88
2022-09-17T06:14:36.662Z,97953.44
2022-09-17T06:17:03.751Z,97959.47
2022-09-17T06:19:31.017Z,97961.09
2022-09-17T06:21:58.485Z,97979.31
2022-09-17T06:24:26.202Z,97974.06
2022-09-17T06:26:53.143Z,97971.53
2022-09-17T06:29:21.316Z,97940.50
2022-09-17T06:31:49.995Z,97979.59
2022-09-17T06:34:18.105Z,97977.97
2022-09-17T06:36:46.018Z,97962.41
2022-09-17T06:39:13.730Z,97981.97
2022-09-17T06:41:44.498Z,97976.75
2022-09-17T06:44:11.586Z,97946.81
2022-09-17T06:46:38.991Z,97977.94
2022-09-17T06:49:06.235Z,97968.44
2022-09-17T06:51:33.932Z,97942.97
2022-09-17T06:54:01.798Z,97974.94
2022-09-17T06:56:29.206Z,97974.69
2022-09-17T06:58:56.380Z,97959.75
2022-09-17T07:01:23.484Z,97968.00
2022-09-17T07:03:50.535Z,97978.44
2022-09-17T07:06:18.087Z,97976.56
2022-09-17T07:08:47.197Z,97986.91
2022-09-17T07:11:16.178Z,97975.88
2022-09-17T07:13:43.380Z,97990.91
2022-09-17T07:16:10.973Z,97992.75
2022-09-17T07:18:39.290Z,97988.09
2022-09-17T07:21:08.153Z,97984.75
2022-09-17T07:23:37.326Z,97974.81
2022-09-17T07:26:07.671Z,97992.50
2022-09-17T07:28:35.147Z,97994.16
2022-09-17T07:31:06.556Z,97972.03
2022-09-17T07:33:35.405Z,97993.50
2022-09-17T07:36:06.041Z,97980.22
2022-09-17T07:38:35.360Z,97976.59
2022-09-17T07:41:16.784Z,97981.22
2022-09-17T07:43:44.815Z,97954.97
2022-09-17T07:46:17.495Z,97958.50
2022-09-17T07:48:45.033Z,98006.03
2022-09-17T07:51:20.257Z,97983.97
2022-09-17T07:53:48.091Z,97986.97
2022-09-17T07:56:16.441Z,97935.97
2022-09-17T07:58:43.932Z,97994.44
2022-09-17T08:01:12.889Z,97991.88
2022-09-17T08:03:40.649Z,97997.25
2022-09-17T08:06:13.783Z,97984.66
2022-09-17T08:08:41.575Z,97989.72
2022-09-17T08:11:18.143Z,97989.97
2022-09-17T08:13:53.021Z,98000.41
2022-09-17T08:16:21.658Z,98016.69
2022-09-17T08:18:50.033Z,98006.31
2022-09-17T08:21:21.675Z,98012.59
2022-09-17T08:23:49.549Z,97998.25
2022-09-17T08:26:22.992Z,97960.63
2022-09-17T08:28:56.094Z,97989.13
2022-09-17T08:31:25.479Z,97986.97
2022-09-17T08:33:52.776Z,98001.94
2022-09-17T08:36:21.306Z,97983.59
2022-09-17T08:38:53.562Z,97981.91
2022-09-17T08:41:27.719Z,98015.69
2022-09-17T08:44:04.960Z,98007.22
2022-09-17T08:46:37.918Z,98009.75
2022-09-17T08:49:30.262Z,98014.47
2022-09-17T08:52:22.347Z,98000.84
2022-09-17T08:55:19.038Z,98011.94
2022-09-17T08:58:01.656Z,98016.22
2022-09-17T09:00:38.349Z,97985.88
2022-09-17T09:03:42.027Z,98000.78
2022-09-17T09:06:11.228Z,97939.91
2022-09-17T09:08:45.773Z,97997.06
2022-09-17T09:11:27.576Z,98004.31
2022-09-17T09:14:14.935Z,98036.88
2022-09-17T09:16:47.649Z,98021.34
2022-09-17T09:19:27.233Z,97996.66
2022-09-17T09:22:25.157Z,98017.47
2022-09-17T09:25:24.435Z,98032.22
2022-09-17T09:27:52.133Z,98024.16
2022-09-17T09:30:23.845Z,98037.47
2022-09-17T09:33:21.953Z,98054.31
2022-09-17T09:35:49.297Z,98035.09
2022-09-17T09:38:21.009Z,98044.53
2022-09-17T09:40:57.018Z,98046.84
2022-09-17T09:43:29.623Z,98056.09
2022-09-17T09:46:08.411Z,98055.13
2022-09-17T09:49:15.873Z,98009.41
2022-09-17T09:52:03.421Z,98031.75
2022-09-17T09:55:18.274Z,98045.97
2022-09-17T09:57:50.555Z,98049.72
2022-09-17T10:00:27.192Z,98040.06
2022-09-17T10:03:01.889Z,98034.00
2022-09-17T10:05:29.504Z,98049.88
2022-09-17T10:07:57.823Z,98038.53
2022-09-17T10:10:25.658Z,98039.47
2022-09-17T10:13:06.381Z,98033.44
2022-09-17T10:15:33.692Z,98033.63
2022-09-17T10:18:20.411Z,98015.78
2022-09-17T10:20:58.117Z,98057.06
2022-09-17T10:23:32.258Z,98057.84
2022-09-17T10:26:00.429Z,98038.97
2022-09-17T10:28:44.233Z,98070.63
2022-09-17T10:31:11.678Z,98056.81
2022-09-17T10:33:52.811Z,98076.19
2022-09-17T10:36:51.382Z,98081.97
2022-09-17T10:39:46.787Z,98041.50
2022-09-17T10:42:18.658Z,98077.56
2022-09-17T10:44:55.314Z,98043.31
2022-09-17T10:47:29.137Z,98072.19
2022-09-17T10:49:58.095Z,98071.69
2022-09-17T10:52:31.304Z,98072.63
2022-09-17T10:55:36.182Z,98071.34
2022-09-17T10:58:07.482Z,98049.28
2022-09-17T11:00:41.831Z,98063.94
2022-09-17T11:03:49.039Z,98085.03
2022-09-17T11:06:34.487Z,98075.41
2022-09-17T11:09:35.027Z,98080.06
2022-09-17T11:12:42.301Z,98083.47
2022-09-17T11:15:37.018Z,98083.63
2022-09-17T11:18:13.048Z,98078.19
2022-09-17T11:21:17.693Z,98071.41
2022-09-17T11:24:33.576Z,98071.25
2022-09-17T11:27:00.677Z,98072.44
2022-09-17T11:30:04.703Z,98076.06
2022-09-17T11:32:35.008Z,98073.72
2022-09-17T11:35:21.512Z,98074.72
2022-09-17T11:38:11.376Z,98078.81
2022-09-17T11:40:47.367Z,98084.75
2022-09-17T11:43:14.587Z,98081.19
2022-09-17T11:46:05.399Z,98080.91
2022-09-17T11:48:46.681Z,98072.41
2022-09-17T11:51:27.067Z,98089.53
2022-09-17T11:54:06.857Z,98106.81
2022-09-17T11:56:41.608Z,98097.97
2022-09-17T11:59:14.871Z,98085.00
2022-09-17T12:01:52.346Z,98111.59
2022-09-17T12:04:25.452Z,98095.50
2022-09-17T12:07:29.836Z,98117.19
2022-09-17T12:10:09.374Z,98100.25
2022-09-17T12:12:50.526Z,98109.91
2022-09-17T12:15:28.318Z,98102.13
2022-09-17T12:18:31.870Z,98089.97
2022-09-17T12:21:02.750Z,98083.31
2022-09-17T12:23:48.659Z,98107.25
2022-09-17T12:26:24.907Z,98088.16
2022-09-17T12:29:08.684Z,98095.75
2022-09-17T12:31:50.061Z,98085.81
2022-09-17T12:34:53.635Z,98090.56
2022-09-17T12:38:04.554Z,98095.75
2022-09-17T12:40:49.110Z,98091.00
2022-09-17T12:43:51.800Z,98093.59
2022-09-17T12:46:39.268Z,98115.91
2022-09-17T12:49:27.665Z,98116.63
2022-09-17T12:51:59.571Z,98112.59
2022-09-17T12:55:11.249Z,98097.91
2022-09-17T12:57:51.092Z,98130.16
2022-09-17T13:00:18.326Z,98136.44
2022-09-17T13:02:54.291Z,98143.47
2022-09-17T13:05:42.963Z,98135.41
2022-09-17T13:08:28.658Z,98139.44
2022-09-17T13:11:27.524Z,98136.75
2022-09-17T13:14:04.396Z,98133.69
2022-09-17T13:16:34.856Z,98127.34
2022-09-17T13:19:21.793Z,98118.09
2022-09-17T13:22:07.298Z,98110.03
2022-09-17T13:24:35.766Z,98099.44
2022-09-17T13:27:05.178Z,98110.09
2022-09-17T13:29:47.389Z,98105.69
2022-09-17T13:32:32.733Z,98106.56
2022-09-17T13:35:12.286Z,98119.75
2022-09-17T13:37:57.168Z,98102.16
2022-09-17T13:40:27.231Z,98114.63
2022-09-17T13:43:13.730Z,98123.88
2022-09-17T13:46:16.983Z,98111.16
2022-09-17T13:48:49.803Z,98109.28
2022-09-17T13:51:32.559Z,98116.59
2022-09-17T13:54:06.005Z,98121.66
2022-09-17T13:56:43.162Z,98077.50
2022-09-17T13:59:26.667Z,98112.97
2022-09-17T14:02:03.031Z,98116.41
2022-09-17T14:04:42.328Z,98118.47
2022-09-17T14:07:21.551Z,98117.75
2022-09-17T14:09:53.270Z,98099.19
2022-09-17T14:12:41.326Z,98107.31
2022-09-17T14:15:36.648Z,98123.28
2022-09-17T14:18:28.918Z,98118.38
2022-09-17T14:21:09.743Z,98120.72
2022-09-17T14:23:50.846Z,98090.75
2022-09-17T14:26:45.461Z,98116.47
2022-09-17T14:29:31.418Z,98131.06
2022-09-17T14:31:58.811Z,98132.47
2022-09-17T14:34:27.355Z,98127.75
2022-09-17T14:36:57.327Z,98121.38
2022-09-17T14:39:35.164Z,98123.53
2022-09-17T14:42:05.444Z,98094.63
2022-09-17T14:44:35.223Z,98137.16
2022-09-17T14:47:07.201Z,98155.72
2022-09-17T14:50:03.438Z,98155.16
2022-09-17T14:52:32.767Z,98148.13
2022-09-17T14:55:19.706Z,98132.06
2022-09-17T14:57:52.369Z,98145.19
2022-09-17T15:00:26.379Z,98127.56
2022-09-17T15:02:56.404Z,98130.69
2022-09-17T15:05:34.161Z,98138.00
2022-09-17T15:08:11.118Z,98146.66
2022-09-17T15:11:02.380Z,98150.94
2022-09-17T15:13:32.914Z,98159.03
2022-09-17T15:16:08.099Z,98120.59
2022-09-17T15:18:48.457Z,98145.38
2022-09-17T15:21:35.385Z,98158.47
2022-09-17T15:24:19.655Z,98151.13
2022-09-17T15:26:52.257Z,98163.63
2022-09-17T15:29:29.429Z,98165.66
2022-09-17T15:31:58.588Z,98173.81
2022-09-17T15:34:26.220Z,98130.22
2022-09-17T15:37:08.574Z,98148.31
2022-09-17T15:39:50.715Z,98130.56
2022-09-17T15:42:29.071Z,98164.34
2022-09-17T15:45:17.991Z,98159.84
2022-09-17T15:48:01.863Z,98135.22
2022-09-17T15:50:36.890Z,98170.03
2022-09-17T15:53:10.483Z,98158.75
2022-09-17T15:55:46.028Z,98134.00
2022-09-17T15:58:24.516Z,98165.34
2022-09-17T16:01:16.814Z,98202.69
2022-09-17T16:03:44.457Z,98201.06
2022-09-17T16:06:28.030Z,98212.59
2022-09-17T16:09:04.486Z,98197.38
2022-09-17T16:11:33.042Z,98223.97
2022-09-17T16:14:01.442Z,98218.56
2022-09-17T16:16:35.967Z,98207.84
2022-09-17T16:19:06.423Z,98197.59
2022-09-17T16:21:33.919Z,98220.28
2022-09-17T16:24:01.246Z,98224.06
2022-09-17T16:26:31.629Z,98228.09
2022-09-17T16:29:04.815Z,98235.56
2022-09-17T16:31:33.234Z,98216.19
2022-09-17T16:34:03.841Z,98206.59
2022-09-17T16:36:32.394Z,98230.03
2022-09-17T16:38:59.863Z,98248.84
2022-09-17T16:41:27.091Z,98228.63
2022-09-17T16:43:54.279Z,98254.69
2022-09-17T16:46:21.428Z,98246.53
2022-09-17T16:48:52.501Z,98257.88
2022-09-17T16:51:20.316Z,98266.16
2022-09-17T16:53:47.344Z,98263.59
2022-09-17T16:56:15.810Z,98266.34
2022-09-17T16:58:43.183Z,98258.06
2022-09-17T17:01:12.198Z,98253.94
2022-09-17T17:03:39.786Z,98277.47
2022-09-17T17:06:07.641Z,98270.66
2022-09-17T17:08:34.801Z,98266.44
2022-09-17T17:11:01.922Z,98266.72
2022-09-17T17:13:28.980Z,98248.63
2022-09-17T17:15:56.597Z,98259.13
2022-09-17T17:18:24.768Z,98267.25
2022-09-17T17:20:52.638Z,98261.31
2022-09-17T17:23:19.950Z,98251.03
2022-09-17T17:25:47.267Z,98259.84
2022-09-17T17:28:15.163Z,98270.41
2022-09-17T17:30:46.820Z,98252.25
2022-09-17T17:33:14.954Z,98273.34
2022-09-17T17:35:42.502Z,98274.38
2022-09-17T17:38:09.827Z,98282.66
2022-09-17T17:40:38.486Z,98288.94
2022-09-17T17:43:05.684Z,98280.44
2022-09-17T17:45:33.268Z,98258.84
2022-09-17T17:48:00.363Z,98287.53
2022-09-17T17:50:27.347Z,98273.53
2022-09-17T17:52:55.759Z,98275.97
2022-09-17T17:55:23.193Z,98261.50
2022-09-17T17:58:00.406Z,98289.38
2022-09-17T18:00:29.239Z,98170.06
2022-09-17T18:02:56.583Z,98267.84
2022-09-17T18:05:24.072Z,98270.47
2022-09-17T18:07:51.235Z,98257.75
2022-09-17T18:10:19.844Z,98273.34
2022-09-17T18:12:50.718Z,98283.16
2022-09-17T18:15:18.259Z,98292.03
2022-09-17T18:17:48.090Z,98274.78
2022-09-17T18:20:15.442Z,98295.69
2022-09-17T18:22:42.428Z,98292.25
2022-09-17T18:25:10.111Z,98296.63
2022-09-17T18:27:37.820Z,98294.03
2022-09-17T18:30:05.277Z,98244.72
2022-09-17T18:32:33.870Z,98253.53
2022-09-17T18:35:01.530Z,98278.63
2022-09-17T18:37:29.729Z,98304.81
2022-09-17T18:39:58.844Z,98288.28
2022-09-17T18:42:26.864Z,98290.88
2022-09-17T18:44:54.190Z,98289.06
2022-09-17T18:47:21.323Z,98271.97
2022-09-17T18:49:48.650Z,98282.44
2022-09-17T18:52:16.075Z,98267.81
2022-09-17T18:54:46.082Z,98312.00
2022-09-17T18:57:13.939Z,98293.00
2022-09-17T18:59:41.433Z,98305.06
2022-09-17T19:02:12.993Z,98293.84
2022-09-17T19:04:40.101Z,98311.31
2022-09-17T19:07:07.461Z,98310.56
2022-09-17T19:09:34.619Z,98297.50
2022-09-17T19:12:01.776Z,98303.66
2022-09-17T19:14:28.877Z,98276.06
2022-09-17T19:16:55.927Z,98289.00
2022-09-17T19:19:23.165Z,98303.88
2022-09-17T19:21:50.869Z,98274.38
2022-09-17T19:24:18.207Z,98299.59
2022-09-17T19:26:50.651Z,98296.88
2022-09-17T19:29:18.108Z,98317.06
2022-09-17T19:31:45.679Z,98306.78
2022-09-17T19:34:12.998Z,98326.94
2022-09-17T19:36:39.939Z,98311.28
2022-09-17T19:39:07.077Z,98314.13
2022-09-17T19:41:36.441Z,98306.41
2022-09-17T19:44:04.196Z,98320.47
2022-09-17T19:46:32.458Z,98310.22
2022-09-17T19:49:00.664Z,98321.50
2022-09-17T19:51:32.280Z,98336.31
2022-09-17T19:53:59.377Z,98337.34
2022-09-17T19:56:28.273Z,98306.16
2022-09-17T19:58:56.814Z,98340.84
2022-09-17T20:01:24.800Z,98332.97
2022-09-17T20:03:53.493Z,98322.66
2022-09-17T20:06:24.203Z,98336.50
2022-09-17T20:08:54.514Z,98331.31
2022-09-17T20:11:24.514Z,98353.19
2022-09-17T20:14:08.737Z,98356.75
2022-09-17T20:16:38.473Z,98361.19
2022-09-17T20:19:07.378Z,98356.09
2022-09-17T20:21:35.024Z,98348.25
2022-09-17T20:24:02.959Z,98364.91
2022-09-17T20:26:29.987Z,98365.88
2022-09-17T20:28:57.665Z,98359.09
2022-09-17T20:31:27.797Z,98369.56
2022-09-17T20:34:00.165Z,98369.56
2022-09-17T20:36:33.747Z,98377.47
2022-09-17T20:39:21.800Z,98359.25
2022-09-17T20:41:48.335Z,98367.91
2022-09-17T20:44:15.459Z,98381.09
2022-09-17T20:46:43.866Z,98382.03
2022-09-17T20:49:11.159Z,98335.06
2022-09-17T20:51:38.315Z,98377.78
2022-09-17T20:54:07.839Z,98366.47
2022-09-17T20:56:36.144Z,98384.72
2022-09-17T20:59:14.818Z,98383.09
2022-09-17T21:01:45.173Z,98390.03
2022-09-17T21:04:15.436Z,98364.00
2022-09-17T21:06:43.803Z,98376.22
2022-09-17T21:09:15.970Z,98387.56
2022-09-17T21:11:47.948Z,98377.94
2022-09-17T21:14:16.065Z,98390.25
2022-09-17T21:16:43.559Z,98388.53
2022-09-17T21:19:12.424Z,98364.31
2022-09-17T21:21:39.830Z,98386.13
2022-09-17T21:24:10.384Z,98386.06
2022-09-17T21:26:37.994Z,98388.72
2022-09-17T21:29:05.249Z,98413.13
2022-09-17T21:31:34.239Z,98380.09
2022-09-17T21:34:04.070Z,98406.22
2022-09-17T21:36:33.704Z,98413.28
2022-09-17T21:39:21.093Z,98429.84
2022-09-17T21:41:48.894Z,98426.34
2022-09-17T21:44:16.240Z,98433.41
2022-09-17T21:46:43.362Z,98438.69
2022-09-17T21:49:11.547Z,98443.13
2022-09-17T21:51:40.769Z,98444.84
2022-09-17T21:54:15.433Z,98451.81
2022-09-17T21:56:43.448Z,98440.47
2022-09-17T21:59:13.469Z,98443.13
2022-09-17T22:01:44.089Z,98432.69
2022-09-17T22:04:14.066Z,98436.19
2022-09-17T22:06:42.493Z,98423.97
2022-09-17T22:09:21.539Z,98434.47
2022-09-17T22:11:49.270Z,98380.56
2022-09-17T22:14:19.806Z,98411.03
2022-09-17T22:16:49.938Z,98425.84
2022-09-17T22:19:18.103Z,98430.19
2022-09-17T22:21:48.511Z,98412.72
2022-09-17T22:24:16.408Z,98420.63
2022-09-17T22:26:46.734Z,98415.44
2022-09-17T22:29:16.751Z,98395.38
2022-09-17T22:31:44.781Z,98402.44
2022-09-17T22:34:15.182Z,98399.84
2022-09-17T22:36:42.404Z,98413.78
2022-09-17T22:39:10.225Z,98402.50
2022-09-17T22:41:44.550Z,98408.63
2022-09-17T22:44:16.289Z,98399.94
2022-09-17T22:46:46.752Z,98364.34
2022-09-17T22:49:15.057Z,98400.81
2022-09-17T22:51:43.687Z,98400.00
2022-09-17T22:54:12.992Z,98397.34
2022-09-17T22:56:41.459Z,98380.97
2022-09-17T22:59:09.896Z,98374.06
2022-09-17T23:01:37.438Z,98392.34
2022-09-17T23:04:05.561Z,98410.53
2022-09-17T23:06:35.791Z,98345.34
2022-09-17T23:09:03.292Z,98403.50
2022-09-17T23:11:33.263Z,98396.50
2022-09-17T23:14:04.406Z,98389.56
2022-09-17T23:16:37.369Z,98408.78
2022-09-17T23:19:04.887Z,98365.28
2022-09-17T23:21:32.063Z,98397.41
2022-09-17T23:24:00.038Z,98400.03
2022-09-17T23:26:28.003Z,98399.19
2022-09-17T23:28:55.711Z,98396.63
2022-09-17T23:31:25.678Z,98400.97
2022-09-17T23:33:54.129Z,98395.78
2022-09-17T23:36:29.836Z,98393.22
2022-09-17T23:38:58.584Z,98394.06
2022-09-17T23:41:29.631Z,98377.44
2022-09-17T23:43:58.905Z,98386.16
2022-09-17T23:46:28.580Z,98392.28
2022-09-17T23:48:55.855Z,98394.94
2022-09-17T23:51:24.883Z,98368.97
2022-09-17T23:53:52.321Z,98395.13
2022-09-17T23:56:21.648Z,98409.84
2022-09-17T23:58:50.035Z,98407.28
